Time;durP1;ratioP1;P1;durP2;ratioP2;P2;SDS_P1;SDS_P2;PMS_P1;PMS_P2;Temp;Humidity;BMP_temperature;BMP_pressure;BME280_temperature;BME280_humidity;BME280_pressure;Samples;Min_cycle;Max_cycle;Signal;HPM_P1;HPM_P2
2024/01/13 00:02:02;;;;;;;6.28;2.40;;;;;;;0.73;100.00;101634.44;5076791;28;20766;-78
2024/01/13 00:04:35;;;;;;;10.32;2.80;;;;;;;0.67;100.00;101625.31;5062402;28;20422;-77
2024/01/13 00:07:09;;;;;;;7.43;2.90;;;;;;;0.62;100.00;101619.72;5081081;28;20423;-77
2024/01/13 00:09:42;;;;;;;7.20;2.58;;;;;;;0.52;100.00;101621.03;5086232;28;20425;-78
2024/01/13 00:12:16;;;;;;;8.20;2.40;;;;;;;0.49;100.00;101616.91;5083877;28;20414;-78
2024/01/13 00:14:44;;;;;;;9.00;2.22;;;;;;;0.50;100.00;101622.06;5093442;27;20820;-78
2024/01/13 00:17:18;;;;;;;8.38;2.30;;;;;;;0.54;100.00;101609.13;5094917;27;20416;-78
2024/01/13 00:19:51;;;;;;;8.32;2.10;;;;;;;0.55;100.00;101616.13;5082457;28;20959;-78
2024/01/13 00:22:24;;;;;;;5.65;1.80;;;;;;;0.64;100.00;101604.28;5089626;28;20438;-77
2024/01/13 00:24:57;;;;;;;4.85;1.70;;;;;;;0.50;100.00;101615.88;5077347;28;20428;-78
2024/01/13 00:27:32;;;;;;;5.00;1.67;;;;;;;0.48;100.00;101615.22;5074920;28;21299;-78
2024/01/13 00:30:06;;;;;;;7.90;1.83;;;;;;;0.50;100.00;101608.66;5076934;28;20419;-78
2024/01/13 00:32:39;;;;;;;6.78;1.92;;;;;;;0.51;100.00;101601.44;5058076;28;20422;-78
2024/01/13 00:35:13;;;;;;;5.30;1.63;;;;;;;0.52;100.00;101610.34;5077752;28;20415;-78
2024/01/13 00:37:46;;;;;;;6.77;1.80;;;;;;;0.47;100.00;101602.84;5089053;28;20434;-78
2024/01/13 00:40:14;;;;;;;7.13;1.98;;;;;;;0.53;100.00;101599.41;5078685;28;20418;-77
2024/01/13 00:42:49;;;;;;;7.57;2.15;;;;;;;0.52;100.00;101591.59;5061961;28;20425;-78
2024/01/13 00:45:22;;;;;;;5.25;1.75;;;;;;;0.56;100.00;101593.69;5076775;28;20428;-78
2024/01/13 00:47:50;;;;;;;4.82;1.70;;;;;;;0.57;100.00;101581.94;5091352;28;21047;-78
2024/01/13 00:50:23;;;;;;;3.53;1.45;;;;;;;0.56;100.00;101582.16;5058404;28;20423;-78
2024/01/13 00:52:56;;;;;;;4.40;1.50;;;;;;;0.52;100.00;101581.69;5060382;28;20917;-78
2024/01/13 00:55:29;;;;;;;5.97;1.60;;;;;;;0.52;100.00;101583.53;5058730;28;20460;-78
2024/01/13 00:58:04;;;;;;;4.30;1.60;;;;;;;0.53;100.00;101574.50;5091589;27;20426;-78
2024/01/13 01:00:37;;;;;;;4.88;1.63;;;;;;;0.52;100.00;101576.34;5088623;27;20437;-78
2024/01/13 01:03:11;;;;;;;2.75;1.40;;;;;;;0.54;100.00;101579.66;5060761;28;20433;-78
2024/01/13 01:05:39;;;;;;;5.22;1.90;;;;;;;0.57;100.00;101565.06;5065999;28;20453;-78
2024/01/13 01:08:12;;;;;;;5.57;1.90;;;;;;;0.49;100.00;101564.16;5061471;28;20433;-78
2024/01/13 01:10:40;;;;;;;5.90;1.80;;;;;;;0.53;100.00;101561.09;5059517;28;20416;-78
2024/01/13 01:13:10;;;;;;;3.78;1.67;;;;;;;0.57;100.00;101562.38;5066228;28;20889;-78
2024/01/13 01:15:43;;;;;;;3.58;1.65;;;;;;;0.55;100.00;101551.84;5077164;28;20438;-78
2024/01/13 01:18:12;;;;;;;6.05;2.00;;;;;;;0.53;100.00;101550.41;5076704;28;20418;-78
2024/01/13 01:20:45;;;;;;;6.13;2.00;;;;;;;0.47;100.00;101543.94;5056362;28;20483;-78
2024/01/13 01:23:13;;;;;;;4.40;1.50;;;;;;;0.61;100.00;101542.22;5077381;28;20409;-78
2024/01/13 01:25:46;;;;;;;4.18;1.40;;;;;;;0.56;100.00;101544.66;5076527;28;20414;-78
2024/01/13 01:28:22;;;;;;;4.82;1.70;;;;;;;0.54;100.00;101541.31;5076243;28;20933;-78
2024/01/13 01:30:55;;;;;;;4.35;1.75;;;;;;;0.62;100.00;101530.47;5057503;28;20422;-78
2024/01/13 01:33:28;;;;;;;3.17;1.60;;;;;;;0.56;100.00;101534.75;5057688;28;20427;-78
2024/01/13 01:36:02;;;;;;;7.25;1.83;;;;;;;0.57;100.00;101516.84;5073676;28;20429;-78
2024/01/13 01:38:35;;;;;;;6.78;1.90;;;;;;;0.75;100.00;101511.84;5076065;28;21283;-78
2024/01/13 01:41:09;;;;;;;4.88;1.85;;;;;;;0.60;100.00;101516.47;5089082;28;20979;-78
2024/01/13 01:43:39;;;;;;;5.90;1.95;;;;;;;0.56;100.00;101513.31;5076287;28;20414;-78
2024/01/13 01:46:13;;;;;;;4.97;2.17;;;;;;;0.62;100.00;101507.22;5091872;27;20418;-78
2024/01/13 01:48:42;;;;;;;7.23;2.10;;;;;;;0.53;100.00;101511.03;5060949;28;20422;-78
2024/01/13 01:51:16;;;;;;;7.70;2.50;;;;;;;0.54;100.00;101511.84;5059945;28;20874;-78
2024/01/13 01:53:51;;;;;;;7.35;2.60;;;;;;;0.54;100.00;101502.00;5059201;28;20431;-78
2024/01/13 01:56:26;;;;;;;10.65;2.80;;;;;;;0.53;100.00;101519.06;5076066;28;20444;-78
2024/01/13 01:59:02;;;;;;;7.45;2.22;;;;;;;0.48;100.00;101511.63;5091900;27;20426;-78
2024/01/13 02:01:31;;;;;;;5.43;2.30;;;;;;;0.46;100.00;101502.13;5076736;28;20416;-78
2024/01/13 02:04:07;;;;;;;6.50;2.30;;;;;;;0.47;100.00;101501.94;5076720;28;20425;-78
2024/01/13 02:06:40;;;;;;;5.60;2.28;;;;;;;0.47;100.00;101498.41;5055071;28;20434;-78
2024/01/13 02:09:14;;;;;;;7.07;2.47;;;;;;;0.42;100.00;101503.53;5070988;28;21230;-78
2024/01/13 02:11:42;;;;;;;8.10;2.50;;;;;;;0.44;100.00;101499.63;5060875;28;20440;-79
2024/01/13 02:14:17;;;;;;;8.10;2.53;;;;;;;0.52;100.00;101504.00;5079223;28;20421;-78
2024/01/13 02:16:51;;;;;;;6.07;2.43;;;;;;;0.47;100.00;101506.44;5076118;28;20422;-79
2024/01/13 02:19:20;;;;;;;6.30;2.40;;;;;;;0.45;100.00;101498.59;5076159;28;20424;-79
2024/01/13 02:21:54;;;;;;;6.53;2.30;;;;;;;0.46;100.00;101484.19;5076898;28;20441;-78
2024/01/13 02:24:22;;;;;;;7.05;2.03;;;;;;;0.50;100.00;101476.63;5074195;28;20429;-78
2024/01/13 02:26:50;;;;;;;5.85;2.00;;;;;;;0.60;100.00;101465.56;5074951;28;20428;-78
2024/01/13 02:29:24;;;;;;;5.78;2.00;;;;;;;0.56;100.00;101457.06;5074498;28;20479;-78
2024/01/13 02:31:57;;;;;;;4.50;1.90;;;;;;;0.51;100.00;101454.13;5074590;28;20426;-78
2024/01/13 02:34:30;;;;;;;5.80;2.10;;;;;;;0.47;100.00;101443.00;5058297;28;21133;-78
2024/01/13 02:37:04;;;;;;;6.65;2.38;;;;;;;0.51;100.00;101448.78;5061893;28;20429;-78
2024/01/13 02:39:38;;;;;;;6.10;2.10;;;;;;;0.50;100.00;101449.84;5064103;28;20422;-78
2024/01/13 02:42:07;;;;;;;5.37;2.20;;;;;;;0.50;100.00;101437.25;5066187;28;20817;-78
2024/01/13 02:44:40;;;;;;;8.17;2.37;;;;;;;0.53;100.00;101432.53;5062964;28;20448;-79
2024/01/13 02:47:13;;;;;;;5.00;2.00;;;;;;;0.58;100.00;101422.06;5075500;28;20433;-78
2024/01/13 02:49:41;;;;;;;7.60;2.20;;;;;;;0.57;100.00;101426.59;5059335;28;20418;-78
2024/01/13 02:52:16;;;;;;;7.00;2.33;;;;;;;0.48;100.00;101430.44;5059238;28;20422;-78
2024/01/13 02:54:49;;;;;;;6.55;2.30;;;;;;;0.43;100.00;101425.66;5076014;28;21038;-78
2024/01/13 02:57:17;;;;;;;6.18;2.30;;;;;;;0.46;100.00;101427.94;5059936;28;20460;-78
2024/01/13 02:59:51;;;;;;;7.53;2.30;;;;;;;0.44;100.00;101421.13;5072624;28;20444;-78
2024/01/13 03:02:24;;;;;;;7.28;2.22;;;;;;;0.39;100.00;101415.53;5074832;28;20435;-78
2024/01/13 03:04:52;;;;;;;7.93;2.28;;;;;;;0.44;100.00;101421.97;5075554;28;20437;-78
2024/01/13 03:07:27;;;;;;;6.63;2.40;;;;;;;0.60;100.00;101417.34;5074185;28;20424;-78
2024/01/13 03:10:00;;;;;;;7.28;2.53;;;;;;;0.44;100.00;101411.25;5076269;28;20417;-78
2024/01/13 03:12:29;;;;;;;8.48;2.75;;;;;;;0.50;100.00;101405.13;5088171;28;20430;-78
2024/01/13 03:14:57;;;;;;;8.23;2.83;;;;;;;0.55;100.00;101395.66;5049193;28;20418;-78
2024/01/13 03:17:24;;;;;;;9.35;2.80;;;;;;;0.44;100.00;101397.03;5088747;28;20428;-78
2024/01/13 03:19:52;;;;;;;8.55;2.85;;;;;;;0.55;100.00;101385.78;5089281;28;20425;-78
2024/01/13 03:22:27;;;;;;;9.30;3.22;;;;;;;0.55;100.00;101380.41;5061753;28;20786;-78
2024/01/13 03:25:00;;;;;;;7.60;2.90;;;;;;;0.53;100.00;101377.13;5077899;28;20419;-78
2024/01/13 03:27:28;;;;;;;9.02;3.10;;;;;;;0.58;100.00;101373.84;5063130;28;20438;-78
2024/01/13 03:29:56;;;;;;;7.40;2.90;;;;;;;0.54;100.00;101360.03;5077609;28;20472;-78
2024/01/13 03:32:25;;;;;;;9.25;3.08;;;;;;;0.56;100.00;101363.31;5077427;28;20419;-78
2024/01/13 03:34:53;;;;;;;8.53;3.00;;;;;;;0.65;100.00;101358.66;5070022;28;20899;-78
2024/01/13 03:37:27;;;;;;;8.50;2.90;;;;;;;0.54;100.00;101364.53;5059520;28;20426;-79
2024/01/13 03:40:00;;;;;;;8.23;2.78;;;;;;;0.64;100.00;101357.00;5091296;27;20414;-79
2024/01/13 03:42:29;;;;;;;8.52;3.20;;;;;;;0.68;100.00;101351.03;5080547;28;20427;-78
2024/01/13 03:45:02;;;;;;;7.25;2.60;;;;;;;0.68;100.00;101353.72;5071512;28;20907;-79
2024/01/13 03:47:35;;;;;;;7.43;2.65;;;;;;;0.64;100.00;101357.00;5076709;28;20425;-79
2024/01/13 03:50:03;;;;;;;7.10;2.83;;;;;;;0.66;100.00;101353.09;5062616;28;20431;-78
2024/01/13 03:52:33;;;;;;;8.07;2.70;;;;;;;0.56;100.00;101351.81;5081792;28;20434;-79
2024/01/13 03:55:08;;;;;;;7.43;2.78;;;;;;;0.62;100.00;101359.88;5057748;28;20437;-78
2024/01/13 03:57:41;;;;;;;5.97;2.33;;;;;;;0.57;100.00;101364.19;5076902;28;20418;-79
2024/01/13 04:00:10;;;;;;;7.07;2.60;;;;;;;0.51;100.00;101357.72;5061617;28;21221;-79
2024/01/13 04:02:43;;;;;;;7.13;2.77;;;;;;;0.59;100.00;101354.06;5062497;28;20787;-78
2024/01/13 04:05:17;;;;;;;7.97;2.85;;;;;;;0.60;100.00;101355.75;5062123;28;20435;-78
2024/01/13 04:07:51;;;;;;;7.80;2.80;;;;;;;0.58;100.00;101358.63;5093045;28;20433;-78
2024/01/13 04:10:25;;;;;;;7.20;2.55;;;;;;;0.59;100.00;101354.06;5077751;28;20877;-79
2024/01/13 04:12:58;;;;;;;6.03;2.60;;;;;;;0.66;100.00;101352.25;5079170;28;20437;-78
2024/01/13 04:15:32;;;;;;;6.25;2.33;;;;;;;0.67;100.00;101337.84;5067158;28;20968;-78
2024/01/13 04:18:00;;;;;;;6.23;2.23;;;;;;;0.68;100.00;101336.84;5075733;28;20475;-78
2024/01/13 04:20:34;;;;;;;5.22;2.10;;;;;;;0.66;100.00;101341.53;5093680;27;20433;-78
2024/01/13 04:23:08;;;;;;;5.60;2.20;;;;;;;0.62;100.00;101335.78;5077155;28;20433;-79
2024/01/13 04:25:37;;;;;;;5.93;2.13;;;;;;;0.68;100.00;101326.94;5076529;28;20425;-79
2024/01/13 04:28:05;;;;;;;5.53;2.38;;;;;;;0.60;100.00;101315.56;5059381;28;21382;-78
2024/01/13 04:30:35;;;;;;;7.80;2.30;;;;;;;0.60;100.00;101318.25;5077448;28;20435;-79
2024/01/13 04:33:08;;;;;;;5.88;2.17;;;;;;;0.62;100.00;101321.53;5058702;28;20429;-79
2024/01/13 04:35:41;;;;;;;7.18;2.20;;;;;;;0.66;100.00;101323.63;5076555;28;20421;-79
2024/01/13 04:38:11;;;;;;;7.07;2.30;;;;;;;0.69;100.00;101311.66;5075617;28;21130;-79
2024/01/13 04:40:47;;;;;;;6.13;2.35;;;;;;;0.63;100.00;101307.94;5059986;28;20941;-78
2024/01/13 04:43:20;;;;;;;6.88;2.45;;;;;;;0.69;100.00;101306.31;5060791;28;20443;-78
2024/01/13 04:45:53;;;;;;;5.82;2.30;;;;;;;0.74;100.00;101303.88;5062393;28;20931;-79
2024/01/13 04:48:26;;;;;;;7.35;2.33;;;;;;;0.76;100.00;101292.94;5076144;28;20430;-78
2024/01/13 04:50:54;;;;;;;7.28;2.45;;;;;;;0.67;100.00;101303.03;5057985;28;20422;-79
2024/01/13 04:53:29;;;;;;;5.35;2.45;;;;;;;0.71;100.00;101282.03;5093119;28;20430;-79
2024/01/13 04:56:02;;;;;;;5.67;2.40;;;;;;;0.57;100.00;101281.16;5075721;28;20422;-78
2024/01/13 04:58:36;;;;;;;6.10;2.50;;;;;;;0.64;100.00;101287.34;5081382;28;20424;-79
2024/01/13 05:01:09;;;;;;;6.10;2.40;;;;;;;0.47;100.00;101290.34;5066967;28;20416;-79
2024/01/13 05:03:42;;;;;;;5.57;2.33;;;;;;;0.51;100.00;101288.09;5066822;28;20428;-79
2024/01/13 05:06:16;;;;;;;6.82;2.42;;;;;;;0.52;100.00;101289.75;5076294;28;20448;-79
2024/01/13 05:08:50;;;;;;;4.55;1.90;;;;;;;0.56;100.00;101282.97;5074243;28;21503;-79
2024/01/13 05:11:23;;;;;;;5.83;2.20;;;;;;;0.63;100.00;101264.25;5072162;28;20495;-79
2024/01/13 05:13:56;;;;;;;4.60;2.03;;;;;;;0.73;100.00;101261.22;5075443;28;20417;-78
2024/01/13 05:16:25;;;;;;;5.47;2.20;;;;;;;0.65;100.00;101267.59;5060930;28;20432;-78
2024/01/13 05:18:58;;;;;;;6.68;2.40;;;;;;;0.64;100.00;101256.03;5056585;28;20906;-79
2024/01/13 05:21:31;;;;;;;5.57;2.50;;;;;;;0.66;100.00;101254.00;5076261;28;20430;-79
2024/01/13 05:24:06;;;;;;;6.38;2.70;;;;;;;0.68;100.00;101249.25;5062807;28;20747;-79
2024/01/13 05:26:39;;;;;;;5.57;2.58;;;;;;;0.68;100.00;101253.78;5057842;28;20426;-79
2024/01/13 05:29:12;;;;;;;6.10;2.78;;;;;;;0.65;100.00;101248.84;5077085;28;20432;-78
2024/01/13 05:31:47;;;;;;;6.72;2.60;;;;;;;0.69;100.00;101250.06;5078249;28;20418;-78
2024/01/13 05:34:21;;;;;;;7.47;2.95;;;;;;;0.64;100.00;101234.59;5074301;28;20434;-79
2024/01/13 05:36:49;;;;;;;7.28;2.90;;;;;;;0.58;100.00;101237.25;5075122;28;20421;-78
2024/01/13 05:39:18;;;;;;;6.20;2.70;;;;;;;0.62;100.00;101230.47;5077298;28;20425;-79
2024/01/13 05:41:51;;;;;;;6.78;2.72;;;;;;;0.79;100.00;101226.41;5075797;28;20421;-79
2024/01/13 05:44:20;;;;;;;8.32;2.67;;;;;;;0.64;100.00;101225.75;5076865;28;20414;-78
2024/01/13 05:46:48;;;;;;;6.23;2.73;;;;;;;0.53;100.00;101218.28;5077307;28;20419;-79
2024/01/13 05:49:21;;;;;;;7.90;3.05;;;;;;;0.56;100.00;101207.16;5059579;28;21008;-79
2024/01/13 05:51:54;;;;;;;8.37;3.27;;;;;;;0.62;100.00;101209.03;5075480;28;20802;-79
2024/01/13 05:54:29;;;;;;;7.63;3.13;;;;;;;0.68;100.00;101206.38;5076203;28;20418;-79
2024/01/13 05:57:02;;;;;;;7.50;3.15;;;;;;;0.62;100.00;101203.69;5073784;28;20425;-79
2024/01/13 05:59:35;;;;;;;8.88;3.58;;;;;;;0.61;100.00;101213.56;5073428;28;20804;-79
2024/01/13 06:02:04;;;;;;;7.28;3.05;;;;;;;0.68;100.00;101201.03;5072612;28;20430;-79
2024/01/13 06:04:37;;;;;;;6.17;2.63;;;;;;;0.74;100.00;101193.22;5055297;28;20433;-79
2024/01/13 06:07:10;;;;;;;6.25;2.97;;;;;;;0.66;100.00;101188.84;5076657;28;21133;-79
2024/01/13 06:09:44;;;;;;;7.43;2.87;;;;;;;0.57;100.00;101187.41;5058079;28;20500;-79
2024/01/13 06:12:18;;;;;;;7.57;2.80;;;;;;;0.55;100.00;101192.94;5061628;28;20433;-79
2024/01/13 06:14:51;;;;;;;6.68;2.83;;;;;;;0.53;100.00;101191.50;5068454;28;20430;-79
2024/01/13 06:17:19;;;;;;;6.97;2.92;;;;;;;0.57;100.00;101182.03;5059063;28;20489;-79
2024/01/13 06:19:52;;;;;;;8.35;2.95;;;;;;;0.61;100.00;101172.56;5087694;28;20968;-79
2024/01/13 06:22:26;;;;;;;6.93;2.80;;;;;;;0.58;100.00;101175.63;5059741;28;20428;-79
2024/01/13 06:25:00;;;;;;;6.60;2.58;;;;;;;0.57;100.00;101169.47;5076064;28;20420;-79
2024/01/13 06:27:33;;;;;;;7.55;2.92;;;;;;;0.71;100.00;101173.00;5074000;28;20755;-79
2024/01/13 06:30:08;;;;;;;7.15;2.70;;;;;;;0.61;100.00;101173.41;5077432;28;20449;-78
2024/01/13 06:32:36;;;;;;;6.45;2.80;;;;;;;0.61;100.00;101162.69;5075277;28;20441;-79
2024/01/13 06:35:09;;;;;;;7.50;2.85;;;;;;;0.72;100.00;101155.06;5056534;28;20438;-79
2024/01/13 06:37:42;;;;;;;6.80;2.85;;;;;;;0.57;100.00;101145.38;5056883;28;21251;-78
2024/01/13 06:40:19;;;;;;;6.60;3.00;;;;;;;0.66;100.00;101152.19;5074323;28;20422;-79
2024/01/13 06:42:52;;;;;;;8.73;3.43;;;;;;;0.60;100.00;101134.22;5068969;28;20907;-79
2024/01/13 06:45:25;;;;;;;8.00;3.35;;;;;;;0.61;100.00;101130.53;5062420;28;20470;-79
2024/01/13 06:47:58;;;;;;;7.88;3.47;;;;;;;0.49;100.00;101122.25;5073480;28;20426;-79
2024/01/13 06:50:27;;;;;;;8.07;3.10;;;;;;;0.46;100.00;101111.13;5076524;28;20441;-79
2024/01/13 06:53:00;;;;;;;7.90;2.92;;;;;;;0.50;100.00;101117.75;5058959;28;20424;-79
2024/01/13 06:55:37;;;;;;;8.35;3.33;;;;;;;0.55;100.00;101103.75;5055709;28;20427;-79
2024/01/13 06:58:05;;;;;;;8.40;3.35;;;;;;;0.67;100.00;101088.72;5062855;28;20443;-79
2024/01/13 07:00:39;;;;;;;7.43;3.17;;;;;;;0.53;100.00;101081.69;5078950;28;20426;-79
2024/01/13 07:03:12;;;;;;;9.88;3.60;;;;;;;0.50;100.00;101073.03;5079397;28;21223;-79
2024/01/13 07:05:54;;;;;;;8.03;3.70;;;;;;;0.55;100.00;101079.63;5069970;28;20476;-79
2024/01/13 07:08:23;;;;;;;8.77;3.60;;;;;;;0.57;100.00;101078.41;5064266;28;20421;-79
2024/01/13 07:10:54;;;;;;;10.32;4.25;;;;;;;0.56;100.00;101089.31;5080299;28;20421;-79
2024/01/13 07:13:22;;;;;;;8.65;3.85;;;;;;;0.59;100.00;101081.69;5078412;28;20786;-79
2024/01/13 07:15:55;;;;;;;9.15;4.53;;;;;;;0.64;100.00;101087.28;5079006;28;20429;-79
2024/01/13 07:18:29;;;;;;;9.20;4.30;;;;;;;0.70;100.00;101087.50;5066964;28;20495;-79
2024/01/13 07:21:02;;;;;;;8.48;4.15;;;;;;;0.66;100.00;101079.03;5078028;28;20451;-79
2024/01/13 07:23:35;;;;;;;10.25;4.68;;;;;;;0.61;100.00;101063.56;5078404;28;20449;-79
2024/01/13 07:26:05;;;;;;;9.07;4.67;;;;;;;0.59;100.00;101075.53;5079773;28;20430;-79
2024/01/13 07:28:38;;;;;;;11.80;4.50;;;;;;;0.56;100.00;101079.44;5079424;28;20440;-79
2024/01/13 07:31:12;;;;;;;9.98;4.60;;;;;;;0.57;100.00;101075.72;5092144;28;20498;-79
2024/01/13 07:33:45;;;;;;;10.18;4.55;;;;;;;0.69;100.00;101073.25;5064074;28;20448;-79
2024/01/13 07:36:18;;;;;;;8.97;4.20;;;;;;;0.65;100.00;101067.50;5079595;28;20445;-79
2024/01/13 07:38:51;;;;;;;10.00;4.72;;;;;;;0.64;100.00;101048.97;5077215;28;20414;-79
2024/01/13 07:41:26;;;;;;;10.70;4.57;;;;;;;0.67;100.00;101049.34;5080257;28;21060;-79
2024/01/13 07:43:59;;;;;;;8.98;4.30;;;;;;;0.63;100.00;101048.09;5077649;28;20433;-78
2024/01/13 07:46:32;;;;;;;10.48;4.20;;;;;;;0.63;100.00;101040.06;5077447;28;20430;-78
2024/01/13 07:49:05;;;;;;;9.38;4.20;;;;;;;0.67;100.00;101032.47;5077937;28;20428;-80
2024/01/13 07:51:39;;;;;;;9.98;4.30;;;;;;;0.75;100.00;101026.91;5061033;28;20788;-78
2024/01/13 07:54:12;;;;;;;10.05;4.43;;;;;;;0.74;100.00;101029.78;5077666;28;20436;-79
2024/01/13 07:56:47;;;;;;;9.00;4.20;;;;;;;0.64;100.00;101030.22;5057839;28;20926;-79
2024/01/13 07:59:21;;;;;;;9.60;4.25;;;;;;;0.70;100.00;101020.53;5074929;28;21508;-79
2024/01/13 08:01:54;;;;;;;12.23;4.70;;;;;;;0.80;100.00;101015.56;5077002;28;20437;-78
2024/01/13 08:04:27;;;;;;;9.40;4.13;;;;;;;0.74;100.00;101006.50;5074931;28;20432;-79
2024/01/13 08:07:01;;;;;;;8.20;4.28;;;;;;;0.73;100.00;100993.31;5072824;28;20431;-79
2024/01/13 08:09:34;;;;;;;9.40;4.15;;;;;;;0.79;100.00;100979.91;5058622;28;20441;-79
2024/01/13 08:12:09;;;;;;;6.95;3.80;;;;;;;0.79;100.00;100987.97;5076594;28;20434;-79
2024/01/13 08:14:37;;;;;;;7.10;3.40;;;;;;;0.87;100.00;100970.00;5075924;28;20425;-79
2024/01/13 08:17:06;;;;;;;7.18;3.20;;;;;;;0.76;100.00;100980.34;5080806;28;20426;-79
2024/01/13 08:19:39;;;;;;;6.50;3.30;;;;;;;0.79;100.00;100979.91;5066538;28;20437;-80
2024/01/13 08:22:12;;;;;;;7.38;3.28;;;;;;;0.81;100.00;100971.66;5066668;28;20449;-79
2024/01/13 08:24:41;;;;;;;6.90;3.35;;;;;;;0.81;100.00;100975.16;5080841;28;20422;-79
2024/01/13 08:27:16;;;;;;;6.77;3.27;;;;;;;0.71;100.00;100968.59;5079589;28;20432;-80
2024/01/13 08:29:49;;;;;;;7.07;3.67;;;;;;;0.83;100.00;100970.44;5094977;27;20427;-78
2024/01/13 08:32:22;;;;;;;7.43;3.67;;;;;;;0.79;100.00;100971.06;5062897;28;20466;-78
2024/01/13 08:34:56;;;;;;;7.43;3.97;;;;;;;0.81;100.00;100964.44;5079883;28;20431;-78
2024/01/13 08:37:29;;;;;;;8.00;4.18;;;;;;;0.75;100.00;100962.59;5081604;28;20424;-78
2024/01/13 08:40:04;;;;;;;6.88;3.80;;;;;;;0.80;100.00;100959.28;5080666;28;20426;-78
2024/01/13 08:42:39;;;;;;;7.47;3.70;;;;;;;0.76;100.00;100952.69;5081386;28;20410;-78
2024/01/13 08:45:12;;;;;;;6.50;3.53;;;;;;;0.84;100.00;100941.78;5068122;28;20417;-78
2024/01/13 08:47:45;;;;;;;6.75;3.30;;;;;;;0.82;100.00;100938.50;5079104;28;20424;-81
2024/01/13 08:50:18;;;;;;;8.20;3.22;;;;;;;0.81;100.00;100936.84;5081738;28;20781;-77
2024/01/13 08:52:54;;;;;;;4.55;2.60;;;;;;;0.75;100.00;100924.28;5078613;28;20407;-78
2024/01/13 08:55:28;;;;;;;5.05;2.40;;;;;;;0.72;100.00;100930.88;5060306;28;20920;-77
2024/01/13 08:57:58;;;;;;;3.85;2.40;;;;;;;0.78;100.00;100932.72;5091829;27;20945;-78
2024/01/13 09:00:32;;;;;;;4.10;2.40;;;;;;;0.81;100.00;100929.63;5056865;28;20427;-78
2024/01/13 09:03:05;;;;;;;3.92;2.20;;;;;;;0.76;100.00;100936.63;5073263;28;20434;-78
2024/01/13 09:05:33;;;;;;;4.72;2.50;;;;;;;0.86;100.00;100942.41;5078402;28;20428;-77
2024/01/13 09:08:07;;;;;;;4.43;2.20;;;;;;;0.83;100.00;100945.50;5061584;28;20420;-77
2024/01/13 09:10:40;;;;;;;5.70;2.75;;;;;;;0.84;100.00;100942.63;5095844;27;20431;-77
2024/01/13 09:13:15;;;;;;;4.65;2.70;;;;;;;0.89;100.00;100941.16;5059812;28;21177;-78
2024/01/13 09:15:43;;;;;;;6.38;3.10;;;;;;;0.90;100.00;100937.44;5077982;28;20460;-77
2024/01/13 09:18:16;;;;;;;5.68;2.67;;;;;;;0.94;100.00;100938.66;5079083;28;20421;-77
2024/01/13 09:20:44;;;;;;;6.40;2.95;;;;;;;0.89;100.00;100935.81;5063526;28;20430;-78
2024/01/13 09:23:14;;;;;;;7.68;3.00;;;;;;;0.88;100.00;100929.59;5061264;28;20429;-77
2024/01/13 09:25:42;;;;;;;5.53;2.80;;;;;;;0.94;100.00;100914.53;5076606;28;20424;-78
2024/01/13 09:28:17;;;;;;;6.22;2.60;;;;;;;0.91;100.00;100914.97;5077503;28;20428;-81
2024/01/13 09:30:45;;;;;;;6.07;3.13;;;;;;;0.96;100.00;100915.16;5062728;28;20920;-79
2024/01/13 09:33:21;;;;;;;4.70;2.60;;;;;;;1.01;100.00;100910.00;5094089;27;20432;-78
2024/01/13 09:35:52;;;;;;;5.40;2.58;;;;;;;1.04;100.00;100906.06;5065336;28;20784;-79
2024/01/13 09:38:25;;;;;;;5.90;2.60;;;;;;;1.02;100.00;100919.69;5073919;28;20418;-77
2024/01/13 09:40:59;;;;;;;4.65;2.63;;;;;;;1.02;100.00;100915.16;5070767;28;20438;-77
2024/01/13 09:43:38;;;;;;;5.53;2.90;;;;;;;1.15;100.00;100919.66;5062311;28;20449;-77
2024/01/13 09:46:11;;;;;;;5.32;3.05;;;;;;;0.95;100.00;100911.69;5075293;28;20423;-78
2024/01/13 09:48:49;;;;;;;5.47;3.00;;;;;;;0.96;100.00;100896.41;5075672;28;21213;-78
2024/01/13 09:51:27;;;;;;;6.07;3.22;;;;;;;0.92;100.00;100903.22;5070366;28;20425;-78
2024/01/13 09:54:02;;;;;;;6.28;2.83;;;;;;;1.00;100.00;100905.69;5071323;28;20436;-78
2024/01/13 09:56:45;;;;;;;7.05;3.20;;;;;;;1.03;100.00;100899.88;5073737;28;20426;-78
2024/01/13 09:59:17;;;;;;;5.60;3.00;;;;;;;1.01;100.00;100897.44;5071616;28;21494;-78
2024/01/13 10:01:51;;;;;;;6.90;3.15;;;;;;;1.06;100.00;100890.59;5070446;28;20430;-78
2024/01/13 10:04:24;;;;;;;5.68;3.10;;;;;;;1.11;100.00;100888.94;5074117;28;20425;-78
2024/01/13 10:06:54;;;;;;;7.22;3.30;;;;;;;1.04;100.00;100890.81;5058641;28;20437;-78
2024/01/13 10:09:27;;;;;;;5.82;2.90;;;;;;;1.07;100.00;100887.72;5063990;28;20443;-78
2024/01/13 10:12:06;;;;;;;5.77;3.00;;;;;;;1.08;100.00;100875.13;5069703;28;20870;-77
2024/01/13 10:14:43;;;;;;;6.30;2.78;;;;;;;1.06;100.00;100874.53;5057513;28;20434;-77
2024/01/13 10:17:16;;;;;;;5.43;2.67;;;;;;;1.10;100.00;100865.84;5056208;28;20422;-78
2024/01/13 10:19:50;;;;;;;5.60;2.70;;;;;;;1.15;100.00;100862.53;5074230;28;20445;-78
2024/01/13 10:22:19;;;;;;;5.93;2.78;;;;;;;1.06;100.00;100867.28;5075598;28;20425;-77
2024/01/13 10:24:52;;;;;;;4.90;2.65;;;;;;;1.25;100.00;100865.56;5073919;28;20422;-78
2024/01/13 10:27:28;;;;;;;4.50;2.70;;;;;;;1.23;100.00;100850.72;5076994;28;20425;-78
2024/01/13 10:29:59;;;;;;;5.03;2.80;;;;;;;1.19;100.00;100845.00;5059844;28;20414;-78
2024/01/13 10:32:28;;;;;;;9.83;3.10;;;;;;;1.07;100.00;100839.47;5058215;28;20508;-78
2024/01/13 10:35:01;;;;;;;5.80;3.03;;;;;;;1.17;100.00;100836.31;5075764;28;20414;-78
2024/01/13 10:37:36;;;;;;;6.03;3.15;;;;;;;1.07;100.00;100835.97;5068972;28;20425;-78
2024/01/13 10:40:10;;;;;;;5.88;3.20;;;;;;;1.09;100.00;100824.00;5073384;28;20429;-78
2024/01/13 10:42:46;;;;;;;6.63;2.97;;;;;;;1.11;100.00;100832.66;5074480;28;20431;-78
2024/01/13 10:45:23;;;;;;;4.77;2.90;;;;;;;1.18;100.00;100820.03;5076022;28;20800;-78
2024/01/13 10:48:10;;;;;;;5.95;2.70;;;;;;;1.15;100.00;100804.38;5074687;28;20806;-78
2024/01/13 10:50:41;;;;;;;5.30;2.80;;;;;;;1.21;100.00;100799.19;5071634;28;20512;-78
2024/01/13 10:53:20;;;;;;;5.45;3.00;;;;;;;1.24;100.00;100794.22;5073906;28;20423;-78
2024/01/13 10:55:59;;;;;;;5.93;2.78;;;;;;;1.27;100.00;100799.16;5058006;28;20423;-78
2024/01/13 10:58:36;;;;;;;4.68;2.53;;;;;;;1.27;100.00;100771.53;5074006;28;20417;-78
2024/01/13 11:01:08;;;;;;;3.53;2.40;;;;;;;1.29;100.00;100778.31;5071895;28;21348;-78
2024/01/13 11:03:47;;;;;;;4.32;2.30;;;;;;;1.35;100.00;100760.53;5052013;28;21351;-78
2024/01/13 11:06:23;;;;;;;4.13;2.40;;;;;;;1.28;100.00;100757.91;5053112;28;20421;-78
2024/01/13 11:08:56;;;;;;;3.78;2.30;;;;;;;1.31;100.00;100752.13;5070875;28;20418;-78
2024/01/13 11:11:32;;;;;;;5.05;2.80;;;;;;;1.35;100.00;100747.13;5072711;28;20429;-77
2024/01/13 11:14:10;;;;;;;3.92;2.42;;;;;;;1.31;100.00;100745.91;5068833;28;20422;-78
2024/01/13 11:16:45;;;;;;;5.43;2.90;;;;;;;1.21;100.00;100733.00;5053332;28;21106;-78
2024/01/13 11:19:18;;;;;;;4.35;2.42;;;;;;;1.18;100.00;100734.25;5073501;28;20433;-78
2024/01/13 11:21:52;;;;;;;4.95;2.60;;;;;;;1.31;100.00;100725.31;5071831;28;20444;-78
2024/01/13 11:24:27;;;;;;;4.47;2.60;;;;;;;1.41;100.00;100714.09;5071190;28;20433;-78
2024/01/13 11:27:00;;;;;;;5.57;3.00;;;;;;;1.34;100.00;100716.81;4998630;28;20438;-78
2024/01/13 11:29:43;;;;;;;6.78;2.80;;;;;;;1.29;100.00;100691.72;5045109;28;21312;-78
2024/01/13 11:32:18;;;;;;;6.22;3.08;;;;;;;1.38;100.00;100698.41;5025923;28;20422;-78
2024/01/13 11:34:51;;;;;;;5.95;2.90;;;;;;;1.43;100.00;100692.44;5021584;28;20440;-78
2024/01/13 11:37:30;;;;;;;4.60;2.60;;;;;;;1.42;100.00;100682.72;5041918;28;20426;-78
2024/01/13 11:40:05;;;;;;;6.47;2.83;;;;;;;1.40;100.00;100687.50;5046566;28;21034;-78
2024/01/13 11:42:33;;;;;;;5.88;3.13;;;;;;;1.39;100.00;100683.16;5039266;28;20766;-78
2024/01/13 11:45:13;;;;;;;5.32;2.90;;;;;;;1.41;100.00;100675.72;5048133;28;20418;-78
2024/01/13 11:47:48;;;;;;;5.72;3.15;;;;;;;1.39;100.00;100670.56;5029194;28;20921;-78
2024/01/13 11:50:35;;;;;;;6.85;3.05;;;;;;;1.37;100.00;100656.59;5043202;28;20438;-78